createdAt,value
2023-01-18T00:01:13.585Z,97639.72
2023-01-18T00:03:40.512Z,97499.31
2023-01-18T00:06:09.189Z,97632.59
2023-01-18T00:08:37.526Z,97411.63
2023-01-18T00:11:06.989Z,97543.69
2023-01-18T00:13:35.816Z,97363.38
2023-01-18T00:16:04.335Z,97492.88
2023-01-18T00:18:31.518Z,97415.06
2023-01-18T00:21:06.423Z,97658.53
2023-01-18T00:23:33.276Z,97572.28
2023-01-18T00:26:04.618Z,97553.63
2023-01-18T00:28:31.472Z,97659.84
2023-01-18T00:31:01.345Z,97529.06
2023-01-18T00:33:28.314Z,97591.66
2023-01-18T00:35:59.387Z,97659.53
2023-01-18T00:38:26.639Z,97653.47
2023-01-18T00:40:53.183Z,97647.81
2023-01-18T00:43:38.340Z,97653.84
2023-01-18T00:46:10.968Z,97592.63
2023-01-18T00:48:41.191Z,97658.53
2023-01-18T00:51:09.527Z,97530.19
2023-01-18T00:53:38.158Z,97660.38
2023-01-18T00:56:09.930Z,97625.84
2023-01-18T00:58:37.749Z,97657.16
2023-01-18T01:01:06.221Z,97611.00
2023-01-18T01:03:53.462Z,97531.88
2023-01-18T01:06:45.445Z,97629.22
2023-01-18T01:09:16.905Z,97649.56
2023-01-18T01:12:03.032Z,97611.84
2023-01-18T01:14:49.168Z,97676.94
2023-01-18T01:17:36.097Z,97622.03
2023-01-18T01:20:21.932Z,97617.19
2023-01-18T01:23:07.164Z,97516.22
2023-01-18T01:25:54.327Z,97577.47
2023-01-18T01:28:21.014Z,97678.06
2023-01-18T01:30:47.770Z,97586.22
2023-01-18T01:33:14.464Z,97627.69
2023-01-18T01:35:41.053Z,97643.63
2023-01-18T01:38:07.536Z,97692.47
2023-01-18T01:40:34.388Z,97639.94
2023-01-18T01:43:01.073Z,97691.44
2023-01-18T01:45:31.563Z,97693.97
2023-01-18T01:47:58.828Z,97575.44
2023-01-18T01:50:33.866Z,97564.88
2023-01-18T01:53:00.406Z,97706.84
2023-01-18T01:55:36.918Z,97657.25
2023-01-18T01:58:22.446Z,97704.41
2023-01-18T02:00:49.280Z,97664.28
2023-01-18T02:03:20.975Z,97707.19
2023-01-18T02:05:52.914Z,97472.91
2023-01-18T02:08:23.016Z,97648.53
2023-01-18T02:10:50.881Z,97665.06
2023-01-18T02:13:19.902Z,97717.75
2023-01-18T02:16:32.141Z,97690.19
2023-01-18T02:19:17.123Z,97729.94
2023-01-18T02:21:46.646Z,97738.69
2023-01-18T02:24:50.540Z,97740.22
2023-01-18T02:27:33.812Z,97710.03
2023-01-18T02:30:09.223Z,97743.66
2023-01-18T02:32:49.814Z,97731.00
2023-01-18T02:35:41.715Z,97696.53
2023-01-18T02:38:26.363Z,97750.78
2023-01-18T02:41:17.022Z,97687.72
2023-01-18T02:44:04.041Z,97682.06
2023-01-18T02:46:35.837Z,97732.25
2023-01-18T02:49:23.745Z,97751.94
2023-01-18T02:51:50.411Z,97634.75
2023-01-18T02:54:24.428Z,97715.09
2023-01-18T02:56:53.882Z,97758.75
2023-01-18T02:59:28.069Z,97556.88
2023-01-18T03:02:01.966Z,97628.41
2023-01-18T03:04:33.536Z,97775.00
2023-01-18T03:07:11.227Z,97779.22
2023-01-18T03:09:39.751Z,97740.28
2023-01-18T03:12:12.837Z,97783.34
2023-01-18T03:14:55.311Z,97757.91
2023-01-18T03:17:29.556Z,97789.25
2023-01-18T03:20:03.788Z,97723.75
2023-01-18T03:22:54.219Z,97789.81
2023-01-18T03:25:35.072Z,97771.16
2023-01-18T03:28:27.886Z,97739.75
2023-01-18T03:31:18.611Z,97783.50
2023-01-18T03:33:55.211Z,97764.72
2023-01-18T03:36:38.587Z,97771.56
2023-01-18T03:39:10.343Z,97779.31
2023-01-18T03:41:42.273Z,97771.56
2023-01-18T03:44:18.503Z,97795.44
2023-01-18T03:46:45.461Z,97799.59
2023-01-18T03:49:13.041Z,97808.34
2023-01-18T03:52:15.525Z,97830.34
2023-01-18T03:54:55.118Z,97815.03
2023-01-18T03:57:31.989Z,97782.91
2023-01-18T04:00:00.218Z,97838.63
2023-01-18T04:02:28.000Z,97782.34
2023-01-18T04:04:57.651Z,97791.47
2023-01-18T04:07:28.550Z,97688.56
2023-01-18T04:09:55.068Z,97838.47
2023-01-18T04:12:21.653Z,97779.56
2023-01-18T04:14:48.344Z,97801.75
2023-01-18T04:17:15.079Z,97833.09
2023-01-18T04:19:41.716Z,97679.50
2023-01-18T04:22:09.859Z,97846.81
2023-01-18T04:24:36.574Z,97718.72
2023-01-18T04:27:03.871Z,97651.69
2023-01-18T04:29:31.033Z,97580.00
2023-01-18T04:31:58.007Z,97662.84
2023-01-18T04:34:24.658Z,97606.91
2023-01-18T04:36:51.754Z,97660.88
2023-01-18T04:39:18.751Z,97585.53
2023-01-18T04:41:45.937Z,97845.91
2023-01-18T04:44:12.897Z,97859.47
2023-01-18T04:46:39.854Z,97887.75
2023-01-18T04:49:10.310Z,97828.56
2023-01-18T04:51:38.774Z,97868.06
2023-01-18T04:54:05.271Z,97868.66
2023-01-18T04:56:31.913Z,97877.88
2023-01-18T04:58:58.352Z,97841.75
2023-01-18T05:01:25.382Z,97838.97
2023-01-18T05:03:56.316Z,97892.66
2023-01-18T05:06:24.505Z,97901.13
2023-01-18T05:08:51.458Z,97890.13
2023-01-18T05:11:20.935Z,97814.88
2023-01-18T05:13:47.403Z,97917.88
2023-01-18T05:16:17.569Z,97910.13
2023-01-18T05:18:44.793Z,97817.63
2023-01-18T05:21:11.740Z,97922.41
2023-01-18T05:23:40.267Z,97894.34
2023-01-18T05:26:14.431Z,97901.22
2023-01-18T05:28:41.768Z,97921.03
2023-01-18T05:31:08.934Z,97915.03
2023-01-18T05:33:36.183Z,97863.91
2023-01-18T05:36:02.860Z,97867.44
2023-01-18T05:38:29.408Z,97898.72
2023-01-18T05:40:56.019Z,97896.25
2023-01-18T05:43:24.318Z,97905.22
2023-01-18T05:45:51.096Z,97844.28
2023-01-18T05:48:18.551Z,97965.06
2023-01-18T05:50:46.753Z,97955.69
2023-01-18T05:53:16.479Z,97786.72
2023-01-18T05:55:43.626Z,97930.47
2023-01-18T05:58:10.415Z,97885.09
2023-01-18T06:00:37.082Z,97874.81
2023-01-18T06:03:03.608Z,97945.94
2023-01-18T06:05:30.527Z,97768.78
2023-01-18T06:07:57.045Z,97899.78
2023-01-18T06:10:23.734Z,97809.56
2023-01-18T06:12:50.459Z,97892.94
2023-01-18T06:15:18.552Z,97886.75
2023-01-18T06:17:47.073Z,97984.69
2023-01-18T06:20:14.502Z,97985.81
2023-01-18T06:22:41.065Z,98019.03
2023-01-18T06:25:09.940Z,98019.09
2023-01-18T06:27:37.645Z,98009.91
2023-01-18T06:30:06.262Z,97946.13
2023-01-18T06:32:33.178Z,98039.97
2023-01-18T06:34:59.809Z,97874.97
2023-01-18T06:37:26.597Z,98028.22
2023-01-18T06:39:53.191Z,98018.31
2023-01-18T06:42:19.788Z,98003.50
2023-01-18T06:44:46.369Z,97955.97
2023-01-18T06:47:15.502Z,98016.81
2023-01-18T06:49:42.066Z,98049.34
2023-01-18T06:52:08.582Z,98002.81
2023-01-18T06:54:35.884Z,98062.94
2023-01-18T06:57:02.736Z,98062.03
2023-01-18T06:59:29.284Z,98073.72
2023-01-18T07:01:55.968Z,98064.44
2023-01-18T07:04:22.591Z,98056.34
2023-01-18T07:06:49.468Z,98083.53
2023-01-18T07:09:16.095Z,98057.50
2023-01-18T07:11:43.386Z,97871.88
2023-01-18T07:14:13.762Z,98103.91
2023-01-18T07:16:40.633Z,98079.34
2023-01-18T07:19:07.281Z,98082.13
2023-01-18T07:21:33.955Z,97958.66
2023-01-18T07:24:00.531Z,98032.84
2023-01-18T07:26:27.119Z,98103.97
2023-01-18T07:28:56.569Z,98098.53
2023-01-18T07:31:25.206Z,98041.44
2023-01-18T07:33:52.305Z,98062.75
2023-01-18T07:36:19.008Z,98095.66
2023-01-18T07:38:46.989Z,98158.59
2023-01-18T07:41:15.126Z,98154.34
2023-01-18T07:43:43.766Z,98156.09
2023-01-18T07:46:16.880Z,98145.38
2023-01-18T07:48:44.642Z,98042.97
2023-01-18T07:51:12.087Z,98108.34
2023-01-18T07:53:39.080Z,98159.00
2023-01-18T07:56:12.804Z,98148.81
2023-01-18T07:58:40.020Z,98180.41
2023-01-18T08:01:09.653Z,98149.44
2023-01-18T08:03:37.453Z,98159.66
2023-01-18T08:06:06.460Z,98102.13
2023-01-18T08:08:35.099Z,98148.59
2023-01-18T08:11:03.983Z,98211.47
2023-01-18T08:13:31.134Z,97986.44
2023-01-18T08:16:00.370Z,98032.88
2023-01-18T08:18:27.042Z,98027.28
2023-01-18T08:20:55.153Z,98111.75
2023-01-18T08:23:22.109Z,98068.19
2023-01-18T08:25:48.677Z,98201.78
2023-01-18T08:28:15.389Z,98202.63
2023-01-18T08:30:45.319Z,98226.41
2023-01-18T08:33:12.339Z,98211.72
2023-01-18T08:35:44.451Z,98200.81
2023-01-18T08:38:13.233Z,98145.19
2023-01-18T08:40:40.201Z,98240.72
2023-01-18T08:43:07.353Z,98168.81
2023-01-18T08:45:37.411Z,98195.78
2023-01-18T08:48:07.028Z,98254.94
2023-01-18T08:50:34.960Z,98086.56
2023-01-18T08:53:02.777Z,98266.97
2023-01-18T08:55:34.138Z,98240.72
2023-01-18T08:58:00.849Z,98160.94
2023-01-18T09:00:30.682Z,98274.66
2023-01-18T09:02:58.708Z,98296.16
2023-01-18T09:05:27.766Z,98218.81
2023-01-18T09:07:55.170Z,98184.47
2023-01-18T09:10:22.862Z,98161.72
2023-01-18T09:12:49.699Z,98307.59
2023-01-18T09:15:18.193Z,98174.81
2023-01-18T09:17:45.127Z,98227.78
2023-01-18T09:20:12.342Z,98303.66
2023-01-18T09:22:39.589Z,98308.34
2023-01-18T09:25:06.700Z,98271.97
2023-01-18T09:27:33.541Z,98236.75
2023-01-18T09:30:00.345Z,98280.09
2023-01-18T09:32:27.511Z,98269.91
2023-01-18T09:34:54.898Z,98275.72
2023-01-18T09:37:21.748Z,98333.19
2023-01-18T09:39:52.083Z,98338.97
2023-01-18T09:42:22.611Z,98332.28
2023-01-18T09:44:53.872Z,98272.94
2023-01-18T09:47:34.555Z,98355.94
2023-01-18T09:50:10.914Z,98366.38
2023-01-18T09:53:17.117Z,98308.63
2023-01-18T09:55:46.673Z,98347.25
2023-01-18T09:58:34.732Z,98369.19
2023-01-18T10:01:08.133Z,98349.78
2023-01-18T10:03:53.334Z,98364.25
2023-01-18T10:06:26.259Z,98231.97
2023-01-18T10:08:59.637Z,98342.72
2023-01-18T10:11:33.243Z,98337.00
2023-01-18T10:14:09.157Z,98341.66
2023-01-18T10:16:38.063Z,98246.41
2023-01-18T10:19:15.832Z,98252.47
2023-01-18T10:21:52.209Z,98392.47
2023-01-18T10:24:26.367Z,98351.53
2023-01-18T10:26:57.326Z,98393.06
2023-01-18T10:29:41.904Z,98283.16
2023-01-18T10:32:20.814Z,98247.53
2023-01-18T10:34:51.950Z,98380.44
2023-01-18T10:37:37.630Z,98409.09
2023-01-18T10:40:07.740Z,98414.06
2023-01-18T10:42:43.503Z,98322.16
2023-01-18T10:45:20.293Z,98395.81
2023-01-18T10:47:53.243Z,98280.25
2023-01-18T10:50:40.556Z,98421.38
2023-01-18T10:53:19.197Z,98423.53
2023-01-18T10:56:11.001Z,98426.78
2023-01-18T10:58:44.409Z,98335.88
2023-01-18T11:01:20.118Z,98401.56
2023-01-18T11:03:50.721Z,98431.06
2023-01-18T11:06:20.405Z,98399.63
2023-01-18T11:08:48.793Z,98431.06
2023-01-18T11:11:59.352Z,98407.72
2023-01-18T11:14:30.925Z,98436.84
2023-01-18T11:17:04.395Z,98442.28
2023-01-18T11:19:31.109Z,98313.00
2023-01-18T11:21:57.825Z,98429.50
2023-01-18T11:24:29.866Z,98444.69
2023-01-18T11:27:01.721Z,98317.78
2023-01-18T11:29:32.343Z,98341.94
2023-01-18T11:32:05.890Z,98450.69
2023-01-18T11:34:36.086Z,98434.47
2023-01-18T11:37:03.979Z,98398.88
2023-01-18T11:39:32.277Z,98449.78
2023-01-18T11:42:14.131Z,98396.97
2023-01-18T11:45:12.130Z,98445.63
2023-01-18T11:47:58.028Z,98443.31
2023-01-18T11:50:54.842Z,98445.91
2023-01-18T11:53:54.255Z,98454.06
2023-01-18T11:56:31.333Z,98430.38
2023-01-18T11:58:58.388Z,98442.84
2023-01-18T12:01:52.681Z,98454.34
2023-01-18T12:04:42.042Z,98460.84
2023-01-18T12:07:42.344Z,98454.59
2023-01-18T12:10:18.611Z,98469.97
2023-01-18T12:13:18.766Z,98471.50
2023-01-18T12:16:08.422Z,98474.66
2023-01-18T12:18:34.877Z,98472.19
2023-01-18T12:21:23.891Z,98475.19
2023-01-18T12:24:17.933Z,98462.19
2023-01-18T12:27:00.653Z,98490.00
2023-01-18T12:29:30.312Z,98485.38
2023-01-18T12:32:28.793Z,98489.63
2023-01-18T12:35:15.582Z,98491.81
2023-01-18T12:37:57.723Z,98494.91
2023-01-18T12:40:42.590Z,98503.44
2023-01-18T12:43:28.285Z,98488.47
2023-01-18T12:46:04.487Z,98502.84
2023-01-18T12:48:36.976Z,98403.41
2023-01-18T12:51:14.802Z,98462.94
2023-01-18T12:53:50.531Z,98508.06
2023-01-18T12:56:25.604Z,98517.88
2023-01-18T12:59:01.750Z,98520.16
2023-01-18T13:01:33.910Z,98521.22
2023-01-18T13:04:11.666Z,98521.88
2023-01-18T13:06:39.486Z,98401.59
2023-01-18T13:09:14.238Z,98533.25
2023-01-18T13:11:43.246Z,98407.34
2023-01-18T13:14:33.534Z,98536.19
2023-01-18T13:17:35.408Z,98477.53
2023-01-18T13:20:12.792Z,98550.53
2023-01-18T13:23:14.576Z,98515.00
2023-01-18T13:26:10.099Z,98551.88
2023-01-18T13:28:37.035Z,98440.06
2023-01-18T13:31:06.239Z,98556.38
2023-01-18T13:33:36.566Z,98550.50
2023-01-18T13:36:08.013Z,98561.03
2023-01-18T13:38:42.304Z,98572.72
2023-01-18T13:41:13.484Z,98432.69
2023-01-18T13:43:41.355Z,98578.00
2023-01-18T13:46:07.927Z,98574.47
2023-01-18T13:48:45.115Z,98558.75
2023-01-18T13:51:40.776Z,98435.06
2023-01-18T13:54:18.583Z,98533.44
2023-01-18T13:57:04.456Z,98579.84
2023-01-18T13:59:40.660Z,98512.88
2023-01-18T14:02:29.226Z,98598.84
2023-01-18T14:05:07.628Z,98573.53
2023-01-18T14:07:47.139Z,98596.78
2023-01-18T14:10:25.722Z,98609.00
2023-01-18T14:12:55.434Z,98525.25
2023-01-18T14:15:40.101Z,98612.72
2023-01-18T14:18:29.689Z,98615.47
2023-01-18T14:21:05.172Z,98618.38
2023-01-18T14:24:06.649Z,98630.53
2023-01-18T14:26:36.233Z,98635.75
2023-01-18T14:29:08.130Z,98629.19
2023-01-18T14:31:40.696Z,98540.31
2023-01-18T14:34:40.861Z,98657.69
2023-01-18T14:37:28.795Z,98657.94
2023-01-18T14:40:16.209Z,98668.50
2023-01-18T14:42:50.854Z,98668.78
2023-01-18T14:45:27.114Z,98681.06
2023-01-18T14:47:56.276Z,98654.84
2023-01-18T14:50:26.303Z,98653.16
2023-01-18T14:52:53.955Z,98515.88
2023-01-18T14:55:32.718Z,98646.06
2023-01-18T14:58:15.503Z,98686.53
2023-01-18T15:00:49.017Z,98699.34
2023-01-18T15:03:27.494Z,98697.25
2023-01-18T15:06:09.240Z,98661.94
2023-01-18T15:08:36.378Z,98674.03
2023-01-18T15:11:05.185Z,98641.50
2023-01-18T15:13:33.997Z,98730.16
2023-01-18T15:16:02.202Z,98715.94
2023-01-18T15:18:29.833Z,98595.41
2023-01-18T15:21:15.415Z,98559.16
2023-01-18T15:23:43.432Z,98702.78
2023-01-18T15:26:10.068Z,98541.66
2023-01-18T15:28:36.688Z,98699.97
2023-01-18T15:31:13.276Z,98638.16
2023-01-18T15:33:40.531Z,98712.28
2023-01-18T15:36:09.656Z,98687.97
2023-01-18T15:38:36.467Z,98750.00
2023-01-18T15:41:14.775Z,98706.75
2023-01-18T15:43:43.605Z,98753.75
2023-01-18T15:46:14.636Z,98712.94
2023-01-18T15:48:49.951Z,98763.34
2023-01-18T15:51:16.789Z,98789.13
2023-01-18T15:53:52.467Z,98786.66
2023-01-18T15:56:25.464Z,98668.03
2023-01-18T15:58:56.085Z,98756.72
2023-01-18T16:01:31.960Z,98802.78
2023-01-18T16:04:01.087Z,98736.50
2023-01-18T16:06:29.713Z,98803.75
2023-01-18T16:09:13.250Z,98788.66
2023-01-18T16:11:56.602Z,98704.06
2023-01-18T16:14:25.711Z,98705.81
2023-01-18T16:16:54.231Z,98711.34
2023-01-18T16:19:29.064Z,98828.81
2023-01-18T16:22:02.225Z,98702.41
2023-01-18T16:24:28.752Z,98836.00
2023-01-18T16:26:57.694Z,98846.75
2023-01-18T16:29:24.387Z,98790.50
2023-01-18T16:31:51.035Z,98756.66
2023-01-18T16:34:23.954Z,98856.47
2023-01-18T16:36:52.440Z,98826.13
2023-01-18T16:39:20.401Z,98757.19
2023-01-18T16:41:53.723Z,98858.63
2023-01-18T16:44:20.983Z,98779.72
2023-01-18T16:46:48.521Z,98787.50
2023-01-18T16:49:16.249Z,98791.13
2023-01-18T16:51:42.764Z,98886.63
2023-01-18T16:54:09.300Z,98786.88
2023-01-18T16:56:36.027Z,98838.34
2023-01-18T16:59:14.732Z,98850.78
2023-01-18T17:01:41.552Z,98845.56
2023-01-18T17:04:09.798Z,98849.88
2023-01-18T17:06:36.534Z,98855.13
2023-01-18T17:09:03.685Z,98891.06
2023-01-18T17:11:30.175Z,98891.22
2023-01-18T17:13:56.736Z,98854.50
2023-01-18T17:16:23.463Z,98799.25
2023-01-18T17:18:50.254Z,98896.69
2023-01-18T17:21:16.750Z,98905.19
2023-01-18T17:23:43.314Z,98705.25
2023-01-18T17:26:14.743Z,98868.75
2023-01-18T17:28:41.331Z,98835.88
2023-01-18T17:31:08.494Z,98676.53
2023-01-18T17:33:40.957Z,98831.25
2023-01-18T17:36:09.002Z,98912.88
2023-01-18T17:38:41.910Z,98897.50
2023-01-18T17:41:38.057Z,98930.81
2023-01-18T17:46:57.033Z,98946.53
2023-01-18T17:49:23.542Z,98950.19
2023-01-18T17:51:50.279Z,98942.44
2023-01-18T17:54:21.036Z,98852.94
2023-01-18T17:56:47.653Z,98864.09
2023-01-18T17:59:14.205Z,98922.94
2023-01-18T18:01:41.235Z,98918.78
2023-01-18T18:04:08.078Z,98912.09
2023-01-18T18:06:36.328Z,98932.72
2023-01-18T18:09:04.494Z,98891.91
2023-01-18T18:11:31.165Z,98947.66
2023-01-18T18:13:59.192Z,98951.81
2023-01-18T18:16:26.673Z,98922.06
2023-01-18T18:18:53.560Z,98882.78
2023-01-18T18:21:23.052Z,98844.31
2023-01-18T18:23:49.843Z,98944.06
2023-01-18T18:26:16.374Z,98950.06
2023-01-18T18:28:42.975Z,98997.22
2023-01-18T18:31:15.494Z,98876.88
2023-01-18T18:33:42.370Z,98953.81
2023-01-18T18:36:09.017Z,98868.88
2023-01-18T18:38:35.481Z,98870.56
2023-01-18T18:41:03.935Z,98992.59
2023-01-18T18:43:30.624Z,98917.69
2023-01-18T18:45:57.622Z,98918.22
2023-01-18T18:48:24.412Z,98971.63
2023-01-18T18:50:54.113Z,99019.50
2023-01-18T18:53:23.821Z,98930.16
2023-01-18T18:55:59.327Z,98901.19
2023-01-18T18:58:26.059Z,99032.19
2023-01-18T19:00:52.529Z,98957.19
2023-01-18T19:03:20.908Z,98973.22
2023-01-18T19:05:47.365Z,98906.22
2023-01-18T19:08:13.844Z,99002.94
2023-01-18T19:10:40.392Z,98992.69
2023-01-18T19:13:07.391Z,99002.94
2023-01-18T19:15:33.842Z,99036.41
2023-01-18T19:18:00.878Z,98986.03
2023-01-18T19:20:27.598Z,98913.44
2023-01-18T19:22:54.085Z,98967.47
2023-01-18T19:25:20.744Z,98907.66
2023-01-18T19:27:47.175Z,98940.28
2023-01-18T19:30:18.565Z,98999.13
2023-01-18T19:32:50.884Z,98952.28
2023-01-18T19:35:18.876Z,98957.41
2023-01-18T19:37:46.223Z,99054.66
2023-01-18T19:40:13.896Z,98901.13
2023-01-18T19:42:40.585Z,99040.53
2023-01-18T19:45:11.507Z,99076.50
2023-01-18T19:47:41.334Z,98990.97
2023-01-18T19:50:08.463Z,99022.00
2023-01-18T19:52:34.994Z,99033.88
2023-01-18T19:55:03.043Z,98990.63
2023-01-18T19:57:29.741Z,99077.44
2023-01-18T19:59:57.178Z,99070.81
2023-01-18T20:02:24.080Z,99098.31
2023-01-18T20:04:51.986Z,98954.81
2023-01-18T20:07:18.659Z,99007.06
2023-01-18T20:09:45.429Z,98941.19
2023-01-18T20:12:13.383Z,99059.28
2023-01-18T20:14:42.476Z,99107.19
2023-01-18T20:17:16.347Z,99088.34
2023-01-18T20:19:44.296Z,99123.69
2023-01-18T20:22:11.386Z,98979.50
2023-01-18T20:24:37.875Z,99120.38
2023-01-18T20:27:15.366Z,99086.34
2023-01-18T20:29:43.745Z,99128.25
2023-01-18T20:32:16.230Z,99094.97
2023-01-18T20:34:44.789Z,99143.13
2023-01-18T20:37:12.383Z,99113.16
2023-01-18T20:39:39.320Z,99102.13
2023-01-18T20:42:05.853Z,99066.19
2023-01-18T20:44:33.405Z,99140.81
2023-01-18T20:46:59.980Z,99016.75
2023-01-18T20:49:36.983Z,99135.53
2023-01-18T20:52:05.951Z,99144.97
2023-01-18T20:54:34.660Z,99120.38
2023-01-18T20:57:01.457Z,99169.13
2023-01-18T20:59:28.735Z,99108.16
2023-01-18T21:01:55.461Z,99153.25
2023-01-18T21:04:22.079Z,99143.78
2023-01-18T21:06:49.944Z,99046.81
2023-01-18T21:09:16.869Z,99066.56
2023-01-18T21:11:43.793Z,99177.84
2023-01-18T21:14:10.404Z,99084.06
2023-01-18T21:16:37.184Z,99125.00
2023-01-18T21:19:03.821Z,99138.63
2023-01-18T21:21:31.829Z,99178.31
2023-01-18T21:23:59.441Z,99126.81
2023-01-18T21:26:26.232Z,99164.72
2023-01-18T21:28:53.715Z,99197.28
2023-01-18T21:31:20.635Z,99166.47
2023-01-18T21:33:47.254Z,99195.03
2023-01-18T21:36:17.424Z,99074.72
2023-01-18T21:38:44.390Z,99086.69
2023-01-18T21:41:29.897Z,99198.75
2023-01-18T21:44:15.006Z,99180.66
2023-01-18T21:46:47.023Z,99192.50
2023-01-18T21:50:03.938Z,99191.50
2023-01-18T21:52:37.878Z,98845.44
2023-01-18T21:55:04.787Z,99200.25
2023-01-18T21:57:31.314Z,99100.38
2023-01-18T21:59:57.964Z,99144.19
2023-01-18T22:02:24.655Z,99193.72
2023-01-18T22:05:00.442Z,99158.56
2023-01-18T22:07:28.174Z,99219.47
2023-01-18T22:10:04.098Z,99093.81
2023-01-18T22:12:33.398Z,99160.59
2023-01-18T22:15:01.958Z,99147.19
2023-01-18T22:17:28.688Z,99229.31
2023-01-18T22:19:55.388Z,99194.44
2023-01-18T22:22:21.898Z,99194.56
2023-01-18T22:24:48.345Z,99217.81
2023-01-18T22:27:14.835Z,99081.72
2023-01-18T22:29:41.499Z,99205.06
2023-01-18T22:32:08.123Z,99105.03
2023-01-18T22:34:34.684Z,99260.31
2023-01-18T22:37:01.114Z,98952.34
2023-01-18T22:39:27.578Z,99171.69
2023-01-18T22:41:54.083Z,99077.50
2023-01-18T22:44:20.806Z,99206.13
2023-01-18T22:46:47.461Z,99125.81
2023-01-18T22:49:14.124Z,99112.97
2023-01-18T22:51:41.035Z,99215.72
2023-01-18T22:54:07.749Z,99150.72
2023-01-18T22:56:34.346Z,99166.16
2023-01-18T22:59:00.860Z,99215.81
2023-01-18T23:01:32.515Z,99106.00
2023-01-18T23:04:02.338Z,99217.31
2023-01-18T23:06:34.841Z,99220.59
2023-01-18T23:09:01.499Z,99092.19
2023-01-18T23:11:30.249Z,99286.56
2023-01-18T23:14:16.933Z,98978.41
2023-01-18T23:17:02.918Z,99158.00
2023-01-18T23:19:30.998Z,99229.19
2023-01-18T23:21:58.007Z,99077.63
2023-01-18T23:24:25.271Z,99124.66
2023-01-18T23:26:52.318Z,99277.13
2023-01-18T23:29:20.051Z,99124.56
2023-01-18T23:31:46.928Z,99276.97
2023-01-18T23:34:13.485Z,99258.06
2023-01-18T23:36:40.142Z,99285.56
2023-01-18T23:39:25.315Z,99276.97
2023-01-18T23:42:10.354Z,99164.66
2023-01-18T23:44:55.360Z,99208.47
2023-01-18T23:47:40.136Z,99278.81
2023-01-18T23:50:25.684Z,99291.53
2023-01-18T23:53:11.143Z,99190.72
2023-01-18T23:55:37.798Z,99275.63
2023-01-18T23:58:04.329Z,99297.06
